createdAt,value
2022-11-05T00:00:37.314Z,5.90
2022-11-05T00:03:23.182Z,4.27
2022-11-05T00:06:11.482Z,5.17
2022-11-05T00:08:57.550Z,7.60
2022-11-05T00:11:44.210Z,4.43
2022-11-05T00:14:29.655Z,5.77
2022-11-05T00:16:56.316Z,4.67
2022-11-05T00:19:22.969Z,3.70
2022-11-05T00:22:08.467Z,7.70
2022-11-05T00:24:53.634Z,5.23
2022-11-05T00:27:20.302Z,3.50
2022-11-05T00:29:46.961Z,7.67
2022-11-05T00:32:13.651Z,7.27
2022-11-05T00:34:40.303Z,5.27
2022-11-05T00:37:06.964Z,3.17
2022-11-05T00:39:33.688Z,9.20
2022-11-05T00:42:19.185Z,14.13
2022-11-05T00:45:00.890Z,4.03
2022-11-05T00:47:46.135Z,4.03
2022-11-05T00:50:13.224Z,11.80
2022-11-05T00:53:00.347Z,7.17
2022-11-05T00:55:29.911Z,7.83
2022-11-05T00:57:57.766Z,4.67
2022-11-05T01:00:27.415Z,4.10
2022-11-05T01:02:57.057Z,6.20
2022-11-05T01:05:23.835Z,13.37
2022-11-05T01:07:53.151Z,5.13
2022-11-05T01:10:20.709Z,3.87
2022-11-05T01:12:47.713Z,10.23
2022-11-05T01:15:14.526Z,5.80
2022-11-05T01:17:41.254Z,3.87
2022-11-05T01:20:08.593Z,5.57
2022-11-05T01:22:35.332Z,7.13
2022-11-05T01:25:01.990Z,12.23
2022-11-05T01:27:28.843Z,8.57
2022-11-05T01:29:55.513Z,7.13
2022-11-05T01:32:22.210Z,4.73
2022-11-05T01:34:48.946Z,12.43
2022-11-05T01:37:15.627Z,5.40
2022-11-05T01:39:42.341Z,6.10
2022-11-05T01:42:22.178Z,3.90
2022-11-05T01:45:01.227Z,6.43
2022-11-05T01:47:34.728Z,7.47
2022-11-05T01:50:06.954Z,4.27
2022-11-05T01:52:35.725Z,6.33
2022-11-05T01:55:04.031Z,6.13
2022-11-05T01:57:32.630Z,3.80
2022-11-05T02:00:01.382Z,6.90
2022-11-05T02:02:28.918Z,9.40
2022-11-05T02:05:00.682Z,6.33
2022-11-05T02:07:28.869Z,5.87
2022-11-05T02:10:04.736Z,4.53
2022-11-05T02:12:33.269Z,4.53
2022-11-05T02:15:00.161Z,5.20
2022-11-05T02:17:45.358Z,7.60
2022-11-05T02:20:30.092Z,11.70
2022-11-05T02:23:24.690Z,8.80
2022-11-05T02:25:51.323Z,4.50
2022-11-05T02:28:45.919Z,9.23
2022-11-05T02:31:12.623Z,3.60
2022-11-05T02:33:43.881Z,5.53
2022-11-05T02:36:23.336Z,4.87
2022-11-05T02:39:02.105Z,8.20
2022-11-05T02:41:49.786Z,5.37
2022-11-05T02:44:50.470Z,2.80
2022-11-05T02:47:37.564Z,3.70
2022-11-05T02:50:30.085Z,3.57
2022-11-05T02:53:07.786Z,6.20
2022-11-05T02:55:43.372Z,3.73
2022-11-05T02:58:11.362Z,3.57
2022-11-05T03:00:51.316Z,6.60
2022-11-05T03:03:31.112Z,3.40
2022-11-05T03:06:22.920Z,4.43
2022-11-05T03:09:13.573Z,3.73
2022-11-05T03:11:51.478Z,4.73
2022-11-05T03:14:29.730Z,9.40
2022-11-05T03:17:21.131Z,4.17
2022-11-05T03:19:58.834Z,5.63
2022-11-05T03:22:31.106Z,7.53
2022-11-05T03:25:03.140Z,4.97
2022-11-05T03:27:34.586Z,6.37
2022-11-05T03:30:06.243Z,6.90
2022-11-05T03:32:35.950Z,5.37
2022-11-05T03:35:08.535Z,6.13
2022-11-05T03:37:39.596Z,7.43
2022-11-05T03:40:08.478Z,6.90
2022-11-05T03:42:40.828Z,11.13
2022-11-05T03:45:16.198Z,5.80
2022-11-05T03:47:45.989Z,5.97
2022-11-05T03:50:34.665Z,5.03
2022-11-05T03:53:26.022Z,5.27
2022-11-05T03:56:18.734Z,6.40
2022-11-05T03:58:46.469Z,5.30
2022-11-05T04:01:13.882Z,5.90
2022-11-05T04:03:40.571Z,7.30
2022-11-05T04:06:28.466Z,6.20
2022-11-05T04:09:13.942Z,6.17
2022-11-05T04:11:59.591Z,6.47
2022-11-05T04:14:26.372Z,9.27
2022-11-05T04:17:09.383Z,9.20
2022-11-05T04:19:56.396Z,6.93
2022-11-05T04:22:43.342Z,8.23
2022-11-05T04:25:10.734Z,5.87
2022-11-05T04:27:37.486Z,11.43
2022-11-05T04:30:21.478Z,7.53
2022-11-05T04:33:12.891Z,6.33
2022-11-05T04:35:45.437Z,8.07
2022-11-05T04:38:17.428Z,10.93
2022-11-05T04:40:45.516Z,8.90
2022-11-05T04:43:15.526Z,9.80
2022-11-05T04:45:42.821Z,9.00
2022-11-05T04:48:09.946Z,12.77
2022-11-05T04:50:37.184Z,7.93
2022-11-05T04:53:04.039Z,14.03
2022-11-05T04:55:31.226Z,10.67
2022-11-05T04:57:57.919Z,9.77
2022-11-05T05:00:24.931Z,9.20
2022-11-05T05:02:51.847Z,8.73
2022-11-05T05:05:18.699Z,9.87
2022-11-05T05:07:45.631Z,9.67
2022-11-05T05:10:12.681Z,12.23
2022-11-05T05:12:39.632Z,9.90
2022-11-05T05:15:06.779Z,9.97
2022-11-05T05:17:33.457Z,13.73
2022-11-05T05:20:18.916Z,14.70
2022-11-05T05:22:55.109Z,11.87
2022-11-05T05:25:22.743Z,15.40
2022-11-05T05:27:49.540Z,10.23
2022-11-05T05:30:16.451Z,9.27
2022-11-05T05:32:43.296Z,16.47
2022-11-05T05:35:10.396Z,14.47
2022-11-05T05:37:37.244Z,18.83
2022-11-05T05:40:04.537Z,19.47
2022-11-05T05:42:31.214Z,17.43
2022-11-05T05:44:57.911Z,14.70
2022-11-05T05:47:24.589Z,8.83
2022-11-05T05:49:51.240Z,10.37
2022-11-05T05:52:18.030Z,10.47
2022-11-05T05:54:44.710Z,11.03
2022-11-05T05:57:11.492Z,10.40
2022-11-05T05:59:38.161Z,9.90
2022-11-05T06:02:04.940Z,10.63
2022-11-05T06:04:31.713Z,13.07
2022-11-05T06:06:58.411Z,14.60
2022-11-05T06:09:25.085Z,11.83
2022-11-05T06:11:51.780Z,21.87
2022-11-05T06:14:18.522Z,15.63
2022-11-05T06:16:45.466Z,12.87
2022-11-05T06:19:13.078Z,12.90
2022-11-05T06:21:39.796Z,8.50
2022-11-05T06:24:06.917Z,7.57
2022-11-05T06:26:33.594Z,14.50
2022-11-05T06:29:00.288Z,20.80
2022-11-05T06:31:26.961Z,13.60
2022-11-05T06:33:53.723Z,19.27
2022-11-05T06:36:20.598Z,49.37
2022-11-05T06:38:47.493Z,11.00
2022-11-05T06:41:14.389Z,10.47
2022-11-05T06:43:41.485Z,10.53
2022-11-05T06:46:09.595Z,15.27
2022-11-05T06:48:36.321Z,9.40
2022-11-05T06:51:04.232Z,11.43
2022-11-05T06:53:31.699Z,9.57
2022-11-05T06:56:01.607Z,12.40
2022-11-05T06:58:28.374Z,10.87
2022-11-05T07:01:00.720Z,13.40
2022-11-05T07:03:27.461Z,10.27
2022-11-05T07:05:54.547Z,13.33
2022-11-05T07:08:21.275Z,12.87
2022-11-05T07:10:48.625Z,19.57
2022-11-05T07:13:16.036Z,16.57
2022-11-05T07:15:43.215Z,14.53
2022-11-05T07:18:09.935Z,13.10
2022-11-05T07:20:36.588Z,12.33
2022-11-05T07:23:05.878Z,9.43
2022-11-05T07:25:33.862Z,10.33
2022-11-05T07:28:01.152Z,9.23
2022-11-05T07:30:29.110Z,14.70
2022-11-05T07:32:56.029Z,9.53
2022-11-05T07:35:22.958Z,8.67
2022-11-05T07:37:52.156Z,10.37
2022-11-05T07:40:19.389Z,19.87
2022-11-05T07:42:48.305Z,18.83
2022-11-05T07:45:15.563Z,19.10
2022-11-05T07:47:50.309Z,14.00
2022-11-05T07:50:18.497Z,10.00
2022-11-05T07:52:45.679Z,9.83
2022-11-05T07:55:13.295Z,9.53
2022-11-05T07:57:46.957Z,12.00
2022-11-05T08:00:16.632Z,14.70
2022-11-05T08:02:43.575Z,13.53
2022-11-05T08:05:10.790Z,12.63
2022-11-05T08:07:37.454Z,10.23
2022-11-05T08:10:04.633Z,11.20
2022-11-05T08:12:33.550Z,13.63
2022-11-05T08:15:00.210Z,15.60
2022-11-05T08:17:26.950Z,14.37
2022-11-05T08:19:53.631Z,12.17
2022-11-05T08:22:20.441Z,15.00
2022-11-05T08:24:47.173Z,22.20
2022-11-05T08:27:14.243Z,30.90
2022-11-05T08:29:41.027Z,23.23
2022-11-05T08:32:07.753Z,35.80
2022-11-05T08:34:34.398Z,30.27
2022-11-05T08:37:01.957Z,24.00
2022-11-05T08:39:28.802Z,22.27
2022-11-05T08:41:55.814Z,14.77
2022-11-05T08:44:22.475Z,17.33
2022-11-05T08:46:49.343Z,22.13
2022-11-05T08:49:15.997Z,28.07
2022-11-05T08:51:44.865Z,22.00
2022-11-05T08:54:11.543Z,19.63
2022-11-05T08:56:38.340Z,21.90
2022-11-05T08:59:05.136Z,15.97
2022-11-05T09:01:33.873Z,22.30
2022-11-05T09:04:00.905Z,14.10
2022-11-05T09:06:28.037Z,14.30
2022-11-05T09:08:54.948Z,17.30
2022-11-05T09:11:21.816Z,22.60
2022-11-05T09:13:48.566Z,16.80
2022-11-05T09:16:24.828Z,16.23
2022-11-05T09:18:52.060Z,17.57
2022-11-05T09:21:19.378Z,18.90
2022-11-05T09:23:46.830Z,14.60
2022-11-05T09:26:14.392Z,16.80
2022-11-05T09:28:41.092Z,16.10
2022-11-05T09:31:09.811Z,19.93
2022-11-05T09:33:38.344Z,21.30
2022-11-05T09:36:06.123Z,17.07
2022-11-05T09:38:35.410Z,19.93
2022-11-05T09:41:08.588Z,15.10
2022-11-05T09:43:43.173Z,19.97
2022-11-05T09:46:17.705Z,16.53
2022-11-05T09:48:47.986Z,15.03
2022-11-05T09:51:23.711Z,22.00
2022-11-05T09:53:51.373Z,17.43
2022-11-05T09:56:26.270Z,15.83
2022-11-05T09:59:18.827Z,20.80
2022-11-05T10:01:46.336Z,25.53
2022-11-05T10:04:20.309Z,18.87
2022-11-05T10:06:55.246Z,20.60
2022-11-05T10:09:29.823Z,18.40
2022-11-05T10:12:07.496Z,22.53
2022-11-05T10:14:41.434Z,16.57
2022-11-05T10:17:22.407Z,16.40
2022-11-05T10:20:00.011Z,16.27
2022-11-05T10:22:26.757Z,17.07
2022-11-05T10:24:54.890Z,14.83
2022-11-05T10:27:33.404Z,11.00
2022-11-05T10:30:00.583Z,17.63
2022-11-05T10:32:39.583Z,18.83
2022-11-05T10:35:08.598Z,20.70
2022-11-05T10:37:40.638Z,18.00
2022-11-05T10:40:26.855Z,16.90
2022-11-05T10:43:08.779Z,22.87
2022-11-05T10:45:40.095Z,28.23
2022-11-05T10:48:30.770Z,22.47
2022-11-05T10:50:57.881Z,21.13
2022-11-05T10:53:31.015Z,16.10
2022-11-05T10:56:00.935Z,15.27
2022-11-05T10:58:30.323Z,19.17
2022-11-05T11:00:56.956Z,12.97
2022-11-05T11:03:44.734Z,11.63
2022-11-05T11:06:27.640Z,17.60
2022-11-05T11:08:57.747Z,11.67
2022-11-05T11:11:37.781Z,12.13
2022-11-05T11:14:04.432Z,28.83
2022-11-05T11:16:41.750Z,13.10
2022-11-05T11:19:28.879Z,13.97
2022-11-05T11:22:04.457Z,10.90
2022-11-05T11:24:38.006Z,15.13
2022-11-05T11:27:26.446Z,17.63
2022-11-05T11:30:01.694Z,9.00
2022-11-05T11:32:34.618Z,7.80
2022-11-05T11:35:02.037Z,28.20
2022-11-05T11:37:34.897Z,12.00
2022-11-05T11:40:19.369Z,16.27
2022-11-05T11:42:50.297Z,16.20
2022-11-05T11:45:32.272Z,13.87
2022-11-05T11:48:04.133Z,16.43
2022-11-05T11:50:38.411Z,17.00
2022-11-05T11:53:19.836Z,13.10
2022-11-05T11:55:55.581Z,15.87
2022-11-05T11:58:25.249Z,13.93
2022-11-05T12:01:04.154Z,14.67
2022-11-05T12:03:45.776Z,10.40
2022-11-05T12:06:43.612Z,16.57
2022-11-05T12:09:36.208Z,18.67
2022-11-05T12:12:14.117Z,24.87
2022-11-05T12:15:08.181Z,9.60
2022-11-05T12:18:15.749Z,14.83
2022-11-05T12:21:07.682Z,13.23
2022-11-05T12:23:58.725Z,20.87
2022-11-05T12:26:52.254Z,19.13
2022-11-05T12:29:19.570Z,12.87
2022-11-05T12:32:04.399Z,14.33
2022-11-05T12:35:03.414Z,8.53
2022-11-05T12:37:30.663Z,14.97
2022-11-05T12:40:07.642Z,10.63
2022-11-05T12:42:43.212Z,10.60
2022-11-05T12:45:28.997Z,10.50
2022-11-05T12:48:07.947Z,14.40
2022-11-05T12:50:56.909Z,11.67
2022-11-05T12:53:29.572Z,20.20
2022-11-05T12:56:00.429Z,14.90
2022-11-05T12:58:52.299Z,11.47
2022-11-05T13:01:33.789Z,15.93
2022-11-05T13:04:14.177Z,8.93
2022-11-05T13:06:44.291Z,12.53
2022-11-05T13:09:24.340Z,12.23
2022-11-05T13:11:58.716Z,11.63
2022-11-05T13:14:38.745Z,16.33
2022-11-05T13:17:13.425Z,28.83
2022-11-05T13:19:53.080Z,12.50
2022-11-05T13:22:39.959Z,11.77
2022-11-05T13:25:31.986Z,18.70
2022-11-05T13:28:32.923Z,12.70
2022-11-05T13:31:03.284Z,18.43
2022-11-05T13:33:41.351Z,12.30
2022-11-05T13:36:48.966Z,20.87
2022-11-05T13:39:31.716Z,20.43
2022-11-05T13:42:13.423Z,19.57
2022-11-05T13:44:58.230Z,16.87
2022-11-05T13:47:58.554Z,13.27
2022-11-05T13:50:44.091Z,11.93
2022-11-05T13:53:25.954Z,17.63
2022-11-05T13:55:59.223Z,16.43
2022-11-05T13:58:50.169Z,13.93
2022-11-05T14:01:28.779Z,10.77
2022-11-05T14:03:56.633Z,11.60
2022-11-05T14:06:33.215Z,11.90
2022-11-05T14:09:09.852Z,12.90
2022-11-05T14:11:42.757Z,12.67
2022-11-05T14:14:19.022Z,10.33
2022-11-05T14:17:07.172Z,13.60
2022-11-05T14:19:51.924Z,11.07
2022-11-05T14:22:44.763Z,15.07
2022-11-05T14:25:17.395Z,24.17
2022-11-05T14:27:47.081Z,21.60
2022-11-05T14:30:41.809Z,13.00
2022-11-05T14:33:38.603Z,19.33
2022-11-05T14:36:20.635Z,9.57
2022-11-05T14:38:51.047Z,13.10
2022-11-05T14:41:18.215Z,8.37
2022-11-05T14:43:51.627Z,12.90
2022-11-05T14:46:18.441Z,14.37
2022-11-05T14:48:50.476Z,17.00
2022-11-05T14:51:26.201Z,13.37
2022-11-05T14:54:06.444Z,9.43
2022-11-05T14:56:54.978Z,10.27
2022-11-05T14:59:28.112Z,10.30
2022-11-05T15:02:02.942Z,10.20
2022-11-05T15:04:42.524Z,8.67
2022-11-05T15:07:09.107Z,8.30
2022-11-05T15:09:44.861Z,14.10
2022-11-05T15:12:17.285Z,11.60
2022-11-05T15:14:58.005Z,14.83
2022-11-05T15:17:37.357Z,8.50
2022-11-05T15:20:06.769Z,8.93
2022-11-05T15:22:38.126Z,9.23
2022-11-05T15:25:14.279Z,11.33
2022-11-05T15:27:49.679Z,8.10
2022-11-05T15:30:21.824Z,7.20
2022-11-05T15:32:48.802Z,8.77
2022-11-05T15:35:23.385Z,7.47
2022-11-05T15:37:55.959Z,36.90
2022-11-05T15:40:30.735Z,24.70
2022-11-05T15:43:16.365Z,14.03
2022-11-05T15:45:44.211Z,10.10
2022-11-05T15:48:18.707Z,9.80
2022-11-05T15:50:45.795Z,12.63
2022-11-05T15:53:44.075Z,11.57
2022-11-05T15:56:14.972Z,10.73
2022-11-05T15:58:47.977Z,11.00
2022-11-05T16:01:24.496Z,9.87
2022-11-05T16:03:53.803Z,10.80
2022-11-05T16:06:21.162Z,14.63
2022-11-05T16:08:49.495Z,9.20
2022-11-05T16:11:25.989Z,14.40
2022-11-05T16:13:53.802Z,10.97
2022-11-05T16:16:21.090Z,14.23
2022-11-05T16:18:48.159Z,12.70
2022-11-05T16:21:22.606Z,11.47
2022-11-05T16:23:49.228Z,13.30
2022-11-05T16:27:00.624Z,13.20
2022-11-05T16:29:23.474Z,15.67
2022-11-05T16:31:52.628Z,13.13
2022-11-05T16:34:25.574Z,19.40
2022-11-05T16:36:55.275Z,15.73
2022-11-05T16:39:21.907Z,18.70
2022-11-05T16:41:49.353Z,16.27
2022-11-05T16:44:16.138Z,12.80
2022-11-05T16:46:49.376Z,11.97
2022-11-05T16:49:17.411Z,15.37
2022-11-05T16:51:44.668Z,15.07
2022-11-05T16:54:11.344Z,17.37
2022-11-05T16:56:39.872Z,13.40
2022-11-05T16:59:10.424Z,11.07
2022-11-05T17:01:40.386Z,11.10
2022-11-05T17:04:11.047Z,19.13
2022-11-05T17:06:37.679Z,16.77
2022-11-05T17:09:04.331Z,21.07
2022-11-05T17:11:31.119Z,17.50
2022-11-05T17:13:57.778Z,23.93
2022-11-05T17:16:26.246Z,19.93
2022-11-05T17:18:52.914Z,18.23
2022-11-05T17:21:19.582Z,20.20
2022-11-05T17:23:46.252Z,21.00
2022-11-05T17:26:14.027Z,25.10
2022-11-05T17:28:41.179Z,23.60
2022-11-05T17:31:11.480Z,20.77
2022-11-05T17:33:38.234Z,27.27
2022-11-05T17:36:10.110Z,22.83
2022-11-05T17:38:37.101Z,24.93
2022-11-05T17:41:11.746Z,23.83
2022-11-05T17:43:38.403Z,20.97
2022-11-05T17:46:08.979Z,20.60
2022-11-05T17:48:36.981Z,19.40
2022-11-05T17:51:04.435Z,21.03
2022-11-05T17:53:31.260Z,20.73
2022-11-05T17:55:58.175Z,19.10
2022-11-05T17:58:24.881Z,20.67
2022-11-05T18:00:51.662Z,21.03
2022-11-05T18:03:18.348Z,25.20
2022-11-05T18:05:45.130Z,19.27
2022-11-05T18:08:12.491Z,16.40
2022-11-05T18:10:40.593Z,18.30
2022-11-05T18:13:07.569Z,18.23
2022-11-05T18:15:36.272Z,16.70
2022-11-05T18:18:02.968Z,18.13
2022-11-05T18:20:29.660Z,17.30
2022-11-05T18:22:56.306Z,13.63
2022-11-05T18:25:23.005Z,13.70
2022-11-05T18:27:49.649Z,16.73
2022-11-05T18:30:16.878Z,15.63
2022-11-05T18:32:45.383Z,12.03
2022-11-05T18:35:13.625Z,16.63
2022-11-05T18:37:40.700Z,14.23
2022-11-05T18:40:08.079Z,13.30
2022-11-05T18:42:34.880Z,13.70
2022-11-05T18:45:01.601Z,15.97
2022-11-05T18:47:28.242Z,11.87
2022-11-05T18:49:54.886Z,9.00
2022-11-05T18:52:21.536Z,18.57
2022-11-05T18:54:48.236Z,9.93
2022-11-05T18:57:14.853Z,19.23
2022-11-05T18:59:46.501Z,11.60
2022-11-05T19:02:14.347Z,11.10
2022-11-05T19:05:00.417Z,10.47
2022-11-05T19:07:28.633Z,9.87
2022-11-05T19:09:55.467Z,13.63
2022-11-05T19:12:22.205Z,12.00
2022-11-05T19:14:48.821Z,13.00
2022-11-05T19:17:15.509Z,8.30
2022-11-05T19:19:42.164Z,9.70
2022-11-05T19:22:08.889Z,11.47
2022-11-05T19:24:35.598Z,11.90
2022-11-05T19:27:02.266Z,11.47
2022-11-05T19:29:29.228Z,9.40
2022-11-05T19:31:55.987Z,13.97
2022-11-05T19:34:22.639Z,11.47
2022-11-05T19:36:49.292Z,10.40
2022-11-05T19:39:15.959Z,7.63
2022-11-05T19:41:42.861Z,18.30
2022-11-05T19:44:10.360Z,7.83
2022-11-05T19:46:37.060Z,9.00
2022-11-05T19:49:03.759Z,7.50
2022-11-05T19:51:32.261Z,9.53
2022-11-05T19:54:00.890Z,6.00
2022-11-05T19:56:30.152Z,9.40
2022-11-05T19:58:58.423Z,10.53
2022-11-05T20:01:27.423Z,8.70
2022-11-05T20:03:55.964Z,11.10
2022-11-05T20:06:31.995Z,12.37
2022-11-05T20:11:48.721Z,11.33
2022-11-05T20:14:15.469Z,10.23
2022-11-05T20:16:42.751Z,12.13
2022-11-05T20:19:12.989Z,12.13
2022-11-05T20:21:39.679Z,8.23
2022-11-05T20:24:07.179Z,8.20
2022-11-05T20:26:34.256Z,7.90
2022-11-05T20:29:00.909Z,8.03
2022-11-05T20:31:27.605Z,7.40
2022-11-05T20:33:54.476Z,9.20
2022-11-05T20:36:23.534Z,8.70
2022-11-05T20:38:51.801Z,10.63
2022-11-05T20:41:18.902Z,9.07
2022-11-05T20:43:46.836Z,10.30
2022-11-05T20:46:15.831Z,11.70
2022-11-05T20:48:43.338Z,12.50
2022-11-05T20:51:15.709Z,10.30
2022-11-05T20:53:43.230Z,9.33
2022-11-05T20:56:27.096Z,10.40
2022-11-05T20:58:57.765Z,10.77
2022-11-05T21:01:26.242Z,8.33
2022-11-05T21:03:53.304Z,10.53
2022-11-05T21:06:19.993Z,10.33
2022-11-05T21:08:48.066Z,9.97
2022-11-05T21:11:14.765Z,12.47
2022-11-05T21:13:41.653Z,12.57
2022-11-05T21:16:14.025Z,12.03
2022-11-05T21:18:44.226Z,14.40
2022-11-05T21:21:15.060Z,13.57
2022-11-05T21:23:41.931Z,10.20
2022-11-05T21:26:11.440Z,12.80
2022-11-05T21:28:39.798Z,14.20
2022-11-05T21:31:07.674Z,9.43
2022-11-05T21:33:34.778Z,13.90
2022-11-05T21:36:09.948Z,10.13
2022-11-05T21:38:37.009Z,15.53
2022-11-05T21:41:04.943Z,12.20
2022-11-05T21:43:31.675Z,10.20
2022-11-05T21:46:01.772Z,11.00
2022-11-05T21:48:28.558Z,12.33
2022-11-05T21:51:13.734Z,12.73
2022-11-05T21:53:59.196Z,17.07
2022-11-05T21:56:45.101Z,14.60
2022-11-05T21:59:34.473Z,14.07
2022-11-05T22:02:01.599Z,12.23
2022-11-05T22:04:36.900Z,12.50
2022-11-05T22:07:05.267Z,14.30
2022-11-05T22:09:32.311Z,9.63
2022-11-05T22:11:59.739Z,12.27
2022-11-05T22:14:26.936Z,10.20
2022-11-05T22:16:54.147Z,10.53
2022-11-05T22:19:21.593Z,12.90
2022-11-05T22:21:48.654Z,16.77
2022-11-05T22:24:15.945Z,12.30
2022-11-05T22:26:43.717Z,13.60
2022-11-05T22:29:10.620Z,13.20
2022-11-05T22:31:37.346Z,11.20
2022-11-05T22:34:05.396Z,7.03
2022-11-05T22:36:33.257Z,8.03
2022-11-05T22:39:00.149Z,10.53
2022-11-05T22:41:26.804Z,9.97
2022-11-05T22:43:53.489Z,11.17
2022-11-05T22:46:22.872Z,10.53
2022-11-05T22:48:50.199Z,15.77
2022-11-05T22:51:22.475Z,8.67
2022-11-05T22:53:49.489Z,8.23
2022-11-05T22:56:22.045Z,14.70
2022-11-05T22:58:49.718Z,10.97
2022-11-05T23:01:17.337Z,9.50
2022-11-05T23:03:46.319Z,16.67
2022-11-05T23:06:40.244Z,11.10
2022-11-05T23:09:39.679Z,8.20
2022-11-05T23:12:09.449Z,9.03
2022-11-05T23:14:36.716Z,9.47
2022-11-05T23:17:22.424Z,17.20
2022-11-05T23:20:08.027Z,13.40
2022-11-05T23:22:53.328Z,9.60
2022-11-05T23:25:22.013Z,10.43
2022-11-05T23:27:51.130Z,11.87
2022-11-05T23:30:26.134Z,11.70
2022-11-05T23:32:53.137Z,11.33
2022-11-05T23:35:42.755Z,16.37
2022-11-05T23:38:28.211Z,12.10
2022-11-05T23:41:21.376Z,10.53
2022-11-05T23:44:26.663Z,11.70
2022-11-05T23:47:11.766Z,10.20
2022-11-05T23:49:38.394Z,10.90
2022-11-05T23:52:05.193Z,11.47
2022-11-05T23:54:31.860Z,10.23
2022-11-05T23:56:58.530Z,17.93
2022-11-05T23:59:25.165Z,10.13
